Crawfordsville, Arkansas
Current Conditions -  °F | °C
As of 11:53 PM on Friday 19 Dec 2014 (Local Time) from KAWM Reporting Station
Broken Clouds Broken Clouds  
Wind Chill: 38°   Ceiling: 6000
Heat Index: 38°   Visibility: 10mi
Dew Point: 34°   Wind: 3mph
Humidity: 86%   Direction: 10°N
Pressure: 30.23"   Gusts: NA
Location:  35.23°N, 90.33°W
Report Text: KAWM 200553Z AUTO 01003KT 10SM BKN060 03/01 A3023 RMK AO2 SLP240 60000 T00330011 10061 20033 400670033 51000
Loading
Personal Weather Stations






























Interactive Weather Map New forecast layout! Learn more

10-Day Weather Forecast

Advertisements
Track Severe Weather on mobile